createdAt,value
2022-07-31T00:01:04.275Z,1.85
2022-07-31T00:03:35.887Z,1.80
2022-07-31T00:06:08.615Z,1.90
2022-07-31T00:08:40.191Z,1.75
2022-07-31T00:11:12.203Z,1.60
2022-07-31T00:13:58.090Z,1.90
2022-07-31T00:16:30.070Z,1.75
2022-07-31T00:19:02.045Z,1.67
2022-07-31T00:21:33.571Z,1.90
2022-07-31T00:24:05.478Z,1.83
2022-07-31T00:26:37.702Z,1.85
2022-07-31T00:29:09.583Z,1.88
2022-07-31T00:31:42.941Z,1.73
2022-07-31T00:34:14.444Z,1.73
2022-07-31T00:36:45.948Z,1.80
2022-07-31T00:39:17.769Z,1.88
2022-07-31T00:41:49.571Z,2.08
2022-07-31T00:44:21.991Z,1.42
2022-07-31T00:46:54.543Z,1.83
2022-07-31T00:49:26.491Z,1.70
2022-07-31T00:52:08.863Z,1.80
2022-07-31T00:54:40.728Z,1.60
2022-07-31T00:57:12.235Z,1.58
2022-07-31T00:59:44.262Z,2.13
2022-07-31T01:02:15.759Z,1.73
2022-07-31T01:04:47.784Z,1.77
2022-07-31T01:07:19.350Z,1.92
2022-07-31T01:09:51.271Z,1.88
2022-07-31T01:12:22.831Z,1.75
2022-07-31T01:14:54.754Z,1.67
2022-07-31T01:17:26.246Z,2.00
2022-07-31T01:19:58.123Z,1.92
2022-07-31T01:22:33.805Z,1.60
2022-07-31T01:25:07.165Z,1.95
2022-07-31T01:27:49.141Z,2.13
2022-07-31T01:30:21.787Z,2.28
2022-07-31T01:32:53.287Z,1.73
2022-07-31T01:35:24.898Z,1.60
2022-07-31T01:37:56.953Z,1.88
2022-07-31T01:40:28.763Z,2.00
2022-07-31T01:43:00.263Z,1.88
2022-07-31T01:45:32.283Z,2.15
2022-07-31T01:48:03.818Z,2.10
2022-07-31T01:50:42.256Z,1.75
2022-07-31T01:53:15.583Z,1.80
2022-07-31T01:56:02.217Z,1.83
2022-07-31T01:58:35.439Z,2.28
2022-07-31T02:01:08.491Z,1.75
2022-07-31T02:03:44.491Z,1.80
2022-07-31T02:06:17.097Z,1.80
2022-07-31T02:08:48.620Z,1.35
2022-07-31T02:11:20.471Z,1.77
2022-07-31T02:13:52.111Z,2.03
2022-07-31T02:16:23.970Z,1.60
2022-07-31T02:18:55.490Z,2.03
2022-07-31T02:21:27.400Z,1.52
2022-07-31T02:23:58.976Z,1.58
2022-07-31T02:26:30.879Z,1.63
2022-07-31T02:29:02.380Z,1.90
2022-07-31T02:31:34.342Z,1.60
2022-07-31T02:34:05.853Z,2.05
2022-07-31T02:36:37.680Z,1.95
2022-07-31T02:39:09.178Z,2.03
2022-07-31T02:41:40.988Z,1.55
2022-07-31T02:44:12.493Z,1.73
2022-07-31T02:46:45.102Z,1.90
2022-07-31T02:49:16.687Z,2.05
2022-07-31T02:51:48.506Z,1.70
2022-07-31T02:54:21.021Z,1.95
2022-07-31T02:56:52.881Z,1.70
2022-07-31T02:59:24.437Z,2.05
2022-07-31T03:01:56.421Z,1.70
2022-07-31T03:04:27.910Z,2.00
2022-07-31T03:07:00.794Z,2.00
2022-07-31T03:09:32.316Z,1.50
2022-07-31T03:12:04.870Z,1.80
2022-07-31T03:17:08.633Z,1.70
2022-07-31T03:19:40.137Z,1.90
2022-07-31T03:22:15.335Z,1.80
2022-07-31T03:24:47.602Z,1.80
2022-07-31T03:27:19.092Z,1.80
2022-07-31T03:29:51.839Z,1.63
2022-07-31T03:32:23.352Z,1.90
2022-07-31T03:34:55.208Z,1.63
2022-07-31T03:37:26.714Z,1.67
2022-07-31T03:39:58.592Z,1.88
2022-07-31T03:42:30.111Z,1.85
2022-07-31T03:45:01.935Z,2.03
2022-07-31T03:47:33.433Z,1.92
2022-07-31T03:50:05.320Z,1.95
2022-07-31T03:52:36.835Z,1.83
2022-07-31T03:55:08.663Z,1.80
2022-07-31T03:57:40.206Z,2.00
2022-07-31T04:00:16.597Z,1.63
2022-07-31T04:02:48.872Z,1.60
2022-07-31T04:05:20.793Z,1.30
2022-07-31T04:07:52.341Z,2.03
2022-07-31T04:10:24.052Z,1.90
2022-07-31T04:12:55.759Z,2.00
2022-07-31T04:15:27.283Z,1.73
2022-07-31T04:17:58.808Z,1.92
2022-07-31T04:20:30.706Z,1.77
2022-07-31T04:23:03.925Z,1.80
2022-07-31T04:25:39.059Z,2.10
2022-07-31T04:28:10.663Z,1.60
2022-07-31T04:30:42.802Z,1.73
2022-07-31T04:33:15.072Z,1.67
2022-07-31T04:35:47.066Z,1.73
2022-07-31T04:38:18.557Z,1.75
2022-07-31T04:40:50.489Z,2.05
2022-07-31T04:43:22.041Z,2.28
2022-07-31T04:45:53.903Z,1.73
2022-07-31T04:48:25.430Z,2.03
2022-07-31T04:50:57.830Z,1.65
2022-07-31T04:53:29.318Z,1.92
2022-07-31T04:56:19.908Z,2.17
2022-07-31T04:58:51.472Z,1.85
2022-07-31T05:01:23.429Z,1.52
2022-07-31T05:03:54.987Z,1.73
2022-07-31T05:06:26.857Z,1.65
2022-07-31T05:08:58.433Z,1.70
2022-07-31T05:11:30.437Z,2.10
2022-07-31T05:14:01.965Z,1.45
2022-07-31T05:16:33.691Z,1.65
2022-07-31T05:19:05.217Z,1.50
2022-07-31T05:21:49.646Z,2.15
2022-07-31T05:24:33.025Z,1.73
2022-07-31T05:27:05.798Z,1.88
2022-07-31T05:29:37.323Z,1.70
2022-07-31T05:32:08.857Z,1.40
2022-07-31T05:34:40.397Z,1.70
2022-07-31T05:37:12.559Z,1.75
2022-07-31T05:39:44.094Z,1.60
2022-07-31T05:42:16.094Z,1.90
2022-07-31T05:44:47.609Z,1.65
2022-07-31T05:47:19.508Z,2.10
2022-07-31T05:49:51.076Z,1.60
2022-07-31T05:52:22.967Z,1.95
2022-07-31T05:54:54.492Z,1.65
2022-07-31T05:57:33.358Z,1.92
2022-07-31T06:00:05.811Z,1.92
2022-07-31T06:02:37.696Z,2.13
2022-07-31T06:05:09.203Z,1.83
2022-07-31T06:07:44.496Z,1.90
2022-07-31T06:10:23.125Z,1.77
2022-07-31T06:12:54.671Z,2.13
2022-07-31T06:15:26.569Z,1.80
2022-07-31T06:17:59.126Z,1.92
2022-07-31T06:20:31.128Z,1.92
2022-07-31T06:23:02.677Z,1.80
2022-07-31T06:25:51.923Z,2.13
2022-07-31T06:28:25.439Z,2.35
2022-07-31T06:31:14.951Z,2.15
2022-07-31T06:33:48.059Z,1.80
2022-07-31T06:36:20.637Z,1.98
2022-07-31T06:38:52.156Z,2.10
2022-07-31T06:41:42.888Z,2.35
2022-07-31T06:44:14.396Z,2.08
2022-07-31T06:46:49.177Z,2.00
2022-07-31T06:49:21.146Z,2.20
2022-07-31T06:51:53.063Z,1.95
2022-07-31T06:54:26.880Z,2.40
2022-07-31T06:56:59.246Z,2.15
2022-07-31T06:59:40.130Z,2.15
2022-07-31T07:02:13.686Z,1.90
2022-07-31T07:05:01.530Z,1.83
2022-07-31T07:07:37.038Z,2.15
2022-07-31T07:10:08.607Z,2.20
2022-07-31T07:12:40.216Z,2.30
2022-07-31T07:15:12.781Z,2.38
2022-07-31T07:17:44.729Z,1.98
2022-07-31T07:20:16.243Z,1.90
2022-07-31T07:22:48.280Z,2.25
2022-07-31T07:25:20.517Z,2.10
2022-07-31T07:27:52.483Z,2.10
2022-07-31T07:30:24.136Z,2.00
2022-07-31T07:32:55.915Z,2.50
2022-07-31T07:35:28.616Z,2.00
2022-07-31T07:38:02.917Z,1.83
2022-07-31T07:40:35.337Z,1.70
2022-07-31T07:43:06.828Z,1.87
2022-07-31T07:45:40.417Z,1.70
2022-07-31T07:48:11.908Z,1.80
2022-07-31T07:50:43.421Z,1.73
2022-07-31T07:53:15.004Z,1.98
2022-07-31T07:55:46.825Z,1.75
2022-07-31T07:58:18.323Z,2.07
2022-07-31T08:00:50.201Z,1.90
2022-07-31T08:03:49.029Z,2.00
2022-07-31T08:06:13.624Z,2.00
2022-07-31T08:08:45.170Z,1.90
2022-07-31T08:11:17.839Z,1.92
2022-07-31T08:13:51.133Z,1.67
2022-07-31T08:16:23.303Z,1.80
2022-07-31T08:18:54.886Z,2.17
2022-07-31T08:21:26.937Z,1.70
2022-07-31T08:23:58.472Z,1.55
2022-07-31T08:26:48.959Z,1.73
2022-07-31T08:29:27.264Z,1.42
2022-07-31T08:31:59.500Z,1.55
2022-07-31T08:34:32.197Z,1.45
2022-07-31T08:39:52.729Z,1.42
2022-07-31T08:42:24.262Z,1.50
2022-07-31T08:44:55.767Z,1.50
2022-07-31T08:47:27.618Z,1.45
2022-07-31T08:49:59.133Z,1.75
2022-07-31T08:52:32.815Z,1.90
2022-07-31T08:55:04.332Z,1.60
2022-07-31T08:57:36.171Z,1.95
2022-07-31T09:00:07.689Z,2.15
2022-07-31T09:02:39.699Z,2.03
2022-07-31T09:05:11.333Z,1.80
2022-07-31T09:07:43.269Z,1.67
2022-07-31T09:10:14.770Z,1.83
2022-07-31T09:12:46.674Z,1.70
2022-07-31T09:15:18.527Z,1.95
2022-07-31T09:17:54.145Z,1.52
2022-07-31T09:20:26.103Z,1.60
2022-07-31T09:22:57.917Z,1.60
2022-07-31T09:25:29.411Z,1.90
2022-07-31T09:28:01.225Z,1.80
2022-07-31T09:30:32.788Z,2.05
2022-07-31T09:33:04.613Z,2.03
2022-07-31T09:35:39.892Z,1.80
2022-07-31T09:38:13.568Z,1.70
2022-07-31T09:40:57.540Z,1.77
2022-07-31T09:43:31.352Z,1.70
2022-07-31T09:46:03.672Z,1.63
2022-07-31T09:48:35.181Z,2.00
2022-07-31T09:51:07.071Z,1.88
2022-07-31T09:53:43.216Z,1.85
2022-07-31T09:56:16.442Z,1.52
2022-07-31T09:58:47.963Z,1.92
2022-07-31T10:01:19.918Z,1.90
2022-07-31T10:03:51.476Z,2.00
2022-07-31T10:06:23.143Z,1.70
2022-07-31T10:08:54.632Z,1.67
2022-07-31T10:11:26.510Z,1.88
2022-07-31T10:13:58.050Z,1.63
2022-07-31T10:16:29.927Z,1.90
2022-07-31T10:19:01.471Z,2.05
2022-07-31T10:21:33.347Z,1.75
2022-07-31T10:24:04.852Z,2.03
2022-07-31T10:26:58.978Z,2.05
2022-07-31T10:29:32.533Z,1.67
2022-07-31T10:32:04.546Z,2.10
2022-07-31T10:34:36.167Z,1.63
2022-07-31T10:37:11.083Z,1.80
2022-07-31T10:39:43.009Z,1.98
2022-07-31T10:42:14.864Z,1.65
2022-07-31T10:44:46.414Z,2.10
2022-07-31T10:47:18.301Z,2.30
2022-07-31T10:49:49.823Z,1.90
2022-07-31T10:52:21.617Z,1.77
2022-07-31T10:54:54.693Z,1.90
2022-07-31T10:57:26.713Z,1.80
2022-07-31T10:59:58.228Z,1.90
2022-07-31T11:02:30.123Z,2.17
2022-07-31T11:05:01.674Z,2.35
2022-07-31T11:07:33.513Z,2.17
2022-07-31T11:10:05.018Z,2.00
2022-07-31T11:12:37.166Z,1.85
2022-07-31T11:15:08.718Z,1.80
2022-07-31T11:18:23.221Z,1.88
2022-07-31T11:20:32.101Z,2.00
2022-07-31T11:23:03.872Z,2.00
2022-07-31T11:25:35.383Z,1.67
2022-07-31T11:28:06.994Z,2.00
2022-07-31T11:30:38.510Z,2.17
2022-07-31T11:33:10.126Z,1.88
2022-07-31T11:35:41.961Z,1.83
2022-07-31T11:38:13.619Z,1.73
2022-07-31T11:40:47.753Z,2.17
2022-07-31T11:43:26.658Z,2.00
2022-07-31T11:45:58.225Z,2.05
2022-07-31T11:48:39.076Z,1.90
2022-07-31T11:51:12.729Z,2.30
2022-07-31T11:53:44.242Z,1.88
2022-07-31T11:56:15.737Z,1.73
2022-07-31T11:58:47.279Z,2.08
2022-07-31T12:01:19.278Z,1.98
2022-07-31T12:03:50.820Z,2.20
2022-07-31T12:06:22.652Z,1.98
2022-07-31T12:08:54.321Z,1.90
2022-07-31T12:11:26.168Z,2.13
2022-07-31T12:13:59.260Z,2.08
2022-07-31T12:16:31.101Z,1.88
2022-07-31T12:19:02.595Z,2.28
2022-07-31T12:21:34.448Z,2.00
2022-07-31T12:24:05.943Z,2.10
2022-07-31T12:26:37.687Z,1.88
2022-07-31T12:29:09.304Z,2.00
2022-07-31T12:31:40.983Z,1.75
2022-07-31T12:34:12.506Z,2.00
2022-07-31T12:36:44.314Z,1.90
2022-07-31T12:39:15.865Z,2.00
2022-07-31T12:41:48.286Z,1.88
2022-07-31T12:44:22.361Z,1.88
2022-07-31T12:46:53.960Z,1.55
2022-07-31T12:49:25.586Z,1.88
2022-07-31T12:51:57.412Z,1.77
2022-07-31T12:54:30.817Z,1.80
2022-07-31T12:57:02.937Z,1.63
2022-07-31T12:59:34.874Z,1.88
2022-07-31T13:02:06.859Z,1.93
2022-07-31T13:04:38.432Z,1.90
2022-07-31T13:07:10.357Z,1.75
2022-07-31T13:09:41.867Z,1.88
2022-07-31T13:12:33.791Z,1.80
2022-07-31T13:15:05.418Z,1.67
2022-07-31T13:17:39.926Z,1.67
2022-07-31T13:20:16.716Z,2.10
2022-07-31T13:22:48.728Z,1.90
2022-07-31T13:25:20.307Z,1.65
2022-07-31T13:27:52.726Z,2.00
2022-07-31T13:30:24.341Z,1.95
2022-07-31T13:32:56.124Z,1.70
2022-07-31T13:35:29.231Z,1.70
2022-07-31T13:38:01.208Z,1.48
2022-07-31T13:40:51.319Z,1.75
2022-07-31T13:43:22.891Z,1.55
2022-07-31T13:45:54.420Z,1.77
2022-07-31T13:48:26.401Z,1.80
2022-07-31T13:50:57.972Z,1.52
2022-07-31T13:53:29.793Z,1.63
2022-07-31T13:56:01.328Z,1.70
2022-07-31T13:58:33.144Z,1.70
2022-07-31T14:01:04.825Z,1.58
2022-07-31T14:03:36.593Z,1.60
2022-07-31T14:06:08.629Z,1.67
2022-07-31T14:08:49.936Z,1.90
2022-07-31T14:11:22.227Z,1.77
2022-07-31T14:13:54.083Z,1.40
2022-07-31T14:16:25.582Z,1.50
2022-07-31T14:18:57.384Z,1.58
2022-07-31T14:21:28.882Z,1.80
2022-07-31T14:24:03.136Z,1.63
2022-07-31T14:26:34.814Z,1.20
2022-07-31T14:29:07.310Z,1.73
2022-07-31T14:31:38.863Z,1.50
2022-07-31T14:34:10.383Z,1.73
2022-07-31T14:36:41.903Z,1.60
2022-07-31T14:39:13.753Z,1.40
2022-07-31T14:41:45.337Z,1.42
2022-07-31T14:44:21.138Z,1.63
2022-07-31T14:46:53.283Z,1.50
2022-07-31T14:49:24.827Z,1.33
2022-07-31T14:52:16.668Z,1.38
2022-07-31T14:54:48.184Z,1.60
2022-07-31T14:57:22.365Z,1.43
2022-07-31T14:59:54.191Z,1.67
2022-07-31T15:02:26.320Z,1.40
2022-07-31T15:04:57.842Z,1.20
2022-07-31T15:07:49.909Z,1.67
2022-07-31T15:10:21.845Z,1.45
2022-07-31T15:12:55.059Z,1.42
2022-07-31T15:15:28.570Z,1.40
2022-07-31T15:18:00.835Z,1.58
2022-07-31T15:20:33.162Z,1.40
2022-07-31T15:23:05.279Z,1.30
2022-07-31T15:25:36.817Z,1.40
2022-07-31T15:28:08.652Z,1.43
2022-07-31T15:30:40.175Z,1.58
2022-07-31T15:33:11.692Z,1.60
2022-07-31T15:35:43.180Z,1.53
2022-07-31T15:38:15.088Z,1.60
2022-07-31T15:40:48.721Z,1.40
2022-07-31T15:43:20.267Z,1.15
2022-07-31T15:45:51.772Z,1.15
2022-07-31T15:48:23.952Z,1.30
2022-07-31T15:50:55.453Z,1.38
2022-07-31T15:53:32.793Z,1.37
2022-07-31T15:56:10.913Z,1.40
2022-07-31T15:58:42.874Z,1.35
2022-07-31T16:01:14.422Z,1.50
2022-07-31T16:03:53.068Z,1.40
2022-07-31T16:06:28.050Z,1.40
2022-07-31T16:09:04.028Z,1.17
2022-07-31T16:12:04.585Z,1.30
2022-07-31T16:14:27.397Z,1.33
2022-07-31T16:16:58.912Z,1.38
2022-07-31T16:19:31.140Z,1.30
2022-07-31T16:22:06.111Z,1.40
2022-07-31T16:24:38.013Z,1.47
2022-07-31T16:27:09.586Z,1.27
2022-07-31T16:29:59.042Z,1.30
2022-07-31T16:32:33.120Z,1.40
2022-07-31T16:35:06.218Z,1.17
2022-07-31T16:37:52.435Z,1.65
2022-07-31T16:40:29.765Z,1.30
2022-07-31T16:43:49.625Z,1.20
2022-07-31T16:48:28.207Z,1.48
2022-07-31T16:51:00.634Z,1.13
2022-07-31T16:56:24.111Z,1.13
2022-07-31T16:58:56.292Z,1.13
2022-07-31T17:01:58.488Z,1.60
2022-07-31T17:04:19.640Z,1.60
2022-07-31T17:06:51.173Z,1.45
2022-07-31T17:09:23.161Z,1.33
2022-07-31T17:11:54.924Z,1.00
2022-07-31T17:14:26.980Z,0.90
2022-07-31T17:16:59.162Z,1.15
2022-07-31T17:19:42.725Z,1.17
2022-07-31T17:22:18.723Z,1.13
2022-07-31T17:24:51.470Z,1.17
2022-07-31T17:27:24.180Z,0.90
2022-07-31T17:32:27.314Z,0.90
2022-07-31T17:34:59.145Z,1.10
2022-07-31T17:37:30.658Z,0.80
2022-07-31T17:40:02.517Z,1.00
2022-07-31T17:42:34.058Z,1.00
2022-07-31T17:45:05.893Z,1.02
2022-07-31T17:47:38.597Z,1.10
2022-07-31T17:50:10.517Z,0.90
2022-07-31T17:52:42.011Z,0.93
2022-07-31T17:55:13.907Z,0.93
2022-07-31T17:57:45.468Z,1.25
2022-07-31T18:00:17.308Z,0.80
2022-07-31T18:02:48.853Z,0.95
2022-07-31T18:05:20.679Z,0.75
2022-07-31T18:07:52.243Z,0.90
2022-07-31T18:10:51.899Z,0.93
2022-07-31T18:13:16.224Z,1.30
2022-07-31T18:15:47.756Z,1.65
2022-07-31T18:18:19.651Z,1.33
2022-07-31T18:20:51.393Z,1.30
2022-07-31T18:23:31.999Z,0.90
2022-07-31T18:26:03.952Z,1.00
2022-07-31T18:28:35.954Z,1.17
2022-07-31T18:31:30.740Z,0.80
2022-07-31T18:33:59.395Z,1.70
2022-07-31T18:36:31.012Z,0.90
2022-07-31T18:39:02.879Z,1.45
2022-07-31T18:41:34.382Z,1.30
2022-07-31T18:44:06.299Z,1.08
2022-07-31T18:46:37.861Z,1.20
2022-07-31T18:51:00.751Z,1.30
2022-07-31T18:52:02.051Z,1.10
2022-07-31T18:57:06.670Z,1.90
2022-07-31T18:59:38.567Z,1.92
2022-07-31T19:02:11.544Z,1.83
2022-07-31T19:04:44.189Z,1.45
2022-07-31T19:07:15.780Z,1.35
2022-07-31T19:09:47.729Z,1.35
2022-07-31T19:12:19.364Z,1.30
2022-07-31T19:14:51.356Z,1.05
2022-07-31T19:17:22.876Z,1.30
2022-07-31T19:20:02.090Z,1.80
2022-07-31T19:22:34.018Z,2.85
2022-07-31T19:25:05.569Z,1.98
2022-07-31T19:27:48.324Z,1.42
2022-07-31T19:30:21.900Z,1.45
2022-07-31T19:32:54.385Z,1.30
2022-07-31T19:35:26.532Z,1.60
2022-07-31T19:37:58.116Z,1.55
2022-07-31T19:40:30.015Z,1.17
2022-07-31T19:43:02.705Z,1.00
2022-07-31T19:45:34.797Z,1.25
2022-07-31T19:48:06.390Z,1.40
2022-07-31T19:50:38.323Z,1.38
2022-07-31T19:53:09.868Z,1.23
2022-07-31T19:55:42.114Z,1.17
2022-07-31T19:58:13.674Z,1.30
2022-07-31T20:00:46.618Z,1.42
2022-07-31T20:03:18.474Z,1.20
2022-07-31T20:05:50.544Z,1.40
2022-07-31T20:08:22.066Z,1.67
2022-07-31T20:10:54.152Z,1.40
2022-07-31T20:13:25.753Z,1.23
2022-07-31T20:15:57.622Z,1.65
2022-07-31T20:18:29.849Z,1.30
2022-07-31T20:21:03.858Z,1.60
2022-07-31T20:23:38.073Z,1.48
2022-07-31T20:26:10.231Z,1.17
2022-07-31T20:28:42.520Z,1.70
2022-07-31T20:31:18.535Z,1.52
2022-07-31T20:33:56.769Z,1.52
2022-07-31T20:36:29.696Z,1.65
2022-07-31T20:39:01.609Z,1.60
2022-07-31T20:41:33.110Z,1.57
2022-07-31T20:44:05.050Z,1.90
2022-07-31T20:46:36.573Z,1.80
2022-07-31T20:49:08.643Z,1.58
2022-07-31T20:51:53.598Z,1.60
2022-07-31T20:54:34.749Z,1.77
2022-07-31T20:57:06.629Z,1.65
2022-07-31T20:59:38.521Z,1.63
2022-07-31T21:02:10.049Z,1.65
2022-07-31T21:04:42.005Z,2.10
2022-07-31T21:07:13.519Z,1.47
2022-07-31T21:09:45.371Z,1.55
2022-07-31T21:12:16.891Z,1.33
2022-07-31T21:14:48.740Z,1.38
2022-07-31T21:17:20.293Z,1.67
2022-07-31T21:19:52.159Z,1.40
2022-07-31T21:22:23.762Z,1.50
2022-07-31T21:24:55.604Z,1.80
2022-07-31T21:27:27.131Z,1.50
2022-07-31T21:29:59.025Z,1.73
2022-07-31T21:32:30.531Z,1.67
2022-07-31T21:35:02.400Z,1.58
2022-07-31T21:37:39.971Z,1.73
2022-07-31T21:40:12.234Z,1.52
2022-07-31T21:42:43.912Z,1.33
2022-07-31T21:45:15.805Z,1.10
2022-07-31T21:47:52.437Z,1.38
2022-07-31T21:50:28.802Z,1.20
2022-07-31T21:53:01.283Z,1.27
2022-07-31T21:55:33.337Z,1.40
2022-07-31T21:58:05.157Z,1.35
2022-07-31T22:00:37.528Z,1.05
2022-07-31T22:03:09.131Z,1.30
2022-07-31T22:05:59.880Z,1.27
2022-07-31T22:08:31.440Z,1.33
2022-07-31T22:11:03.333Z,1.13
2022-07-31T22:13:34.932Z,1.13
2022-07-31T22:16:14.973Z,1.42
2022-07-31T22:18:47.508Z,1.00
2022-07-31T22:21:19.867Z,1.10
2022-07-31T22:23:51.684Z,1.42
2022-07-31T22:26:23.573Z,1.15
2022-07-31T22:28:55.127Z,1.40
2022-07-31T22:31:27.123Z,0.93
2022-07-31T22:33:58.709Z,1.30
2022-07-31T22:36:30.674Z,1.17
2022-07-31T22:39:02.242Z,1.63
2022-07-31T22:41:34.152Z,1.10
2022-07-31T22:44:05.689Z,1.20
2022-07-31T22:46:48.948Z,1.20
2022-07-31T22:49:21.123Z,1.00
2022-07-31T22:51:52.795Z,1.10
2022-07-31T22:54:24.711Z,1.30
2022-07-31T22:56:56.342Z,1.10
2022-07-31T22:59:28.429Z,1.20
2022-07-31T23:02:04.389Z,1.00
2022-07-31T23:04:36.725Z,1.15
2022-07-31T23:07:08.248Z,0.98
2022-07-31T23:09:40.112Z,1.30
2022-07-31T23:12:11.727Z,1.25
2022-07-31T23:14:43.675Z,1.17
2022-07-31T23:17:22.351Z,1.60
2022-07-31T23:19:55.431Z,1.10
2022-07-31T23:22:33.539Z,1.40
2022-07-31T23:25:06.194Z,1.27
2022-07-31T23:27:37.766Z,1.40
2022-07-31T23:30:09.733Z,1.42
2022-07-31T23:32:41.347Z,1.15
2022-07-31T23:35:13.434Z,1.70
2022-07-31T23:37:44.994Z,1.20
2022-07-31T23:40:16.820Z,1.25
2022-07-31T23:42:48.721Z,1.20
2022-07-31T23:45:20.823Z,1.20
2022-07-31T23:47:53.127Z,1.40
2022-07-31T23:50:24.928Z,1.33
2022-07-31T23:52:56.430Z,1.52
2022-07-31T23:55:28.365Z,1.42
2022-07-31T23:57:59.866Z,1.13
